Amherst, Canada
Current Conditions -  °F | °C
As of 12:00 AM on Thursday 23 Oct 2014 (Local Time) from CYQM Reporting Station
Light Rain Light Rain  
Wind Chill:   Ceiling: 3300
Heat Index:   Visibility: 10mi
Dew Point:   Wind: 15mph
Humidity: 93%   Direction: 50°NE
Pressure: 30.28"   Gusts: NA
Location:  45.85°N, 64.27°W
Report Text: CYQM 230300Z 05013KT 10SM -RA FEW009 OVC033 08/07 A3028 RMK SF2SC6 SLP254
Loading
Personal Weather Stations






























Interactive Weather Map
Tropical Storm Tracking
New forecast layout! Learn more

10-Day Weather Forecast

Advertisements
Track Severe Weather on mobile